Time;durP1;ratioP1;P1;durP2;ratioP2;P2;SDS_P1;SDS_P2;PMS_P1;PMS_P2;Temp;Humidity;BMP_temperature;BMP_pressure;BME280_temperature;BME280_humidity;BME280_pressure;Samples;Min_cycle;Max_cycle;Signal;HPM_P1;HPM_P2
2021/04/08 00:01:44;;;;;;;16.23;5.83;;;;;;;17.05;46.06;100380.47;4981927;28;20065;-74
2021/04/08 00:04:10;;;;;;;16.27;6.17;;;;;;;16.93;46.40;100378.31;4989308;28;20081;-69
2021/04/08 00:06:37;;;;;;;13.60;5.73;;;;;;;16.75;47.02;100388.72;4988816;28;20050;-74
2021/04/08 00:09:05;;;;;;;18.07;6.10;;;;;;;16.61;47.76;100382.28;4968891;28;20042;-76
2021/04/08 00:11:32;;;;;;;11.90;6.27;;;;;;;16.24;47.69;100333.75;4988181;28;20057;-78
2021/04/08 00:13:58;;;;;;;16.50;5.40;;;;;;;16.49;47.84;100384.91;4992601;28;20076;-71
2021/04/08 00:16:25;;;;;;;11.90;5.30;;;;;;;16.35;48.21;100368.94;4979623;28;20050;-70
2021/04/08 00:18:52;;;;;;;17.90;6.23;;;;;;;16.38;48.08;100366.63;4989660;28;20042;-70
2021/04/08 00:21:19;;;;;;;15.23;6.23;;;;;;;16.42;47.94;100376.91;4986660;28;20081;-67
2021/04/08 00:23:46;;;;;;;16.33;6.07;;;;;;;16.37;48.46;100379.03;4980112;28;20459;-75
2021/04/08 00:26:12;;;;;;;16.37;6.20;;;;;;;16.32;48.68;100392.13;4991678;28;20395;-74
2021/04/08 00:28:38;;;;;;;12.37;6.33;;;;;;;16.14;49.34;100372.59;4987343;28;20056;-74
2021/04/08 00:31:05;;;;;;;11.73;6.03;;;;;;;16.04;49.77;100373.72;4985208;28;20055;-74
2021/04/08 00:33:31;;;;;;;10.60;4.97;;;;;;;16.09;50.15;100390.47;4984257;28;20043;-70
2021/04/08 00:35:57;;;;;;;13.23;5.97;;;;;;;16.04;50.44;100387.81;4989668;28;20523;-70
2021/04/08 00:38:24;;;;;;;9.13;5.27;;;;;;;15.92;50.98;100381.91;4984062;28;20051;-70
2021/04/08 00:40:50;;;;;;;9.70;4.63;;;;;;;15.84;51.59;100375.09;4989547;28;20046;-69
2021/04/08 00:43:17;;;;;;;9.10;4.13;;;;;;;15.87;51.79;100388.53;4989904;28;20047;-71
2021/04/08 00:45:43;;;;;;;11.80;5.40;;;;;;;15.97;51.64;100385.44;4984980;28;20049;-71
2021/04/08 00:48:10;;;;;;;16.23;5.80;;;;;;;16.07;51.30;100384.34;4989575;28;20054;-69
2021/04/08 00:50:36;;;;;;;13.50;5.40;;;;;;;16.12;51.12;100395.47;4985295;28;20050;-71
2021/04/08 00:53:06;;;;;;;14.90;6.17;;;;;;;16.11;50.94;100385.38;4986369;28;20455;-70
2021/04/08 00:55:37;;;;;;;12.23;5.47;;;;;;;16.18;50.86;100384.91;4985501;28;20043;-69
2021/04/08 00:58:04;;;;;;;13.02;5.50;;;;;;;16.31;50.80;100393.28;4983234;28;20039;-70
2021/04/08 01:00:32;;;;;;;8.37;4.80;;;;;;;16.28;51.05;100385.47;4983626;28;20489;-67
2021/04/08 01:02:59;;;;;;;12.03;5.50;;;;;;;16.30;50.81;100383.16;4983130;28;20388;-67
2021/04/08 01:05:26;;;;;;;18.80;6.30;;;;;;;16.37;50.68;100395.94;4988960;28;20539;-68
2021/04/08 01:07:52;;;;;;;9.30;5.00;;;;;;;16.28;50.50;100384.66;4988950;28;20046;-68
2021/04/08 01:10:21;;;;;;;12.37;5.97;;;;;;;16.34;50.95;100400.22;4985438;28;20057;-68
2021/04/08 01:12:50;;;;;;;10.70;5.53;;;;;;;16.28;51.25;100379.84;4984824;28;20680;-68
2021/04/08 01:15:17;;;;;;;17.13;5.97;;;;;;;16.22;50.97;100375.47;4988085;28;20084;-68
2021/04/08 01:18:02;;;;;;;11.07;6.10;;;;;;;16.39;51.05;100404.94;4983357;28;20134;-66
2021/04/08 01:21:03;;;;;;;13.43;5.70;;;;;;;16.38;51.00;100400.44;4987898;28;20415;-68
2021/04/08 01:23:51;;;;;;;18.80;6.57;;;;;;;16.37;51.18;100393.94;4952476;28;20146;-67
2021/04/08 01:26:36;;;;;;;13.90;5.30;;;;;;;16.39;51.26;100402.09;4987762;28;20050;-68
2021/04/08 01:29:09;;;;;;;8.73;5.33;;;;;;;16.33;51.39;100382.50;4985155;28;20050;-67
2021/04/08 01:31:38;;;;;;;12.20;5.90;;;;;;;16.30;51.56;100371.88;4982601;28;20050;-69
2021/04/08 01:34:10;;;;;;;9.03;5.17;;;;;;;16.44;51.28;100382.22;4987709;28;20045;-67
2021/04/08 01:36:40;;;;;;;7.97;4.80;;;;;;;16.46;51.52;100377.94;4984028;28;20046;-67
2021/04/08 01:39:09;;;;;;;11.23;6.00;;;;;;;16.52;51.40;100384.28;4988691;28;20497;-67
2021/04/08 01:41:44;;;;;;;13.05;6.15;;;;;;;16.50;51.13;100375.28;4983392;28;20056;-67
2021/04/08 01:44:17;;;;;;;9.10;5.60;;;;;;;16.49;51.56;100368.81;4985949;28;20236;-67
2021/04/08 01:46:49;;;;;;;15.80;5.83;;;;;;;16.52;51.79;100367.34;4981635;28;20500;-67
2021/04/08 01:49:18;;;;;;;13.07;6.70;;;;;;;16.55;51.56;100361.06;4986242;28;20484;-67
2021/04/08 01:51:45;;;;;;;11.80;5.10;;;;;;;16.72;51.75;100383.69;4988540;28;20042;-67
2021/04/08 01:54:14;;;;;;;10.77;5.57;;;;;;;16.70;51.51;100360.63;4989147;28;20134;-64
2021/04/08 01:56:42;;;;;;;11.30;6.37;;;;;;;16.88;51.36;100377.63;4987180;28;20052;-64
2021/04/08 01:59:13;;;;;;;13.53;5.90;;;;;;;16.88;51.30;100377.63;4984745;28;20051;-66
2021/04/08 02:01:42;;;;;;;9.93;6.17;;;;;;;16.89;51.51;100370.81;4987192;28;20050;-66
2021/04/08 02:04:11;;;;;;;16.80;5.88;;;;;;;16.97;51.83;100372.84;4982064;28;20376;-65
2021/04/08 02:06:41;;;;;;;13.43;6.07;;;;;;;16.91;52.02;100357.22;4982931;28;20047;-69
2021/04/08 02:09:08;;;;;;;12.07;6.20;;;;;;;16.87;52.16;100364.69;4983241;28;20523;-67
2021/04/08 02:11:36;;;;;;;10.27;5.87;;;;;;;16.88;52.67;100374.81;4990537;28;20050;-64
2021/04/08 02:14:04;;;;;;;14.10;6.10;;;;;;;16.85;52.91;100389.56;4987126;28;20046;-69
2021/04/08 02:16:30;;;;;;;9.13;6.20;;;;;;;16.79;53.25;100392.53;4991304;28;20058;-68
2021/04/08 02:18:59;;;;;;;12.17;6.00;;;;;;;16.73;53.41;100374.06;4989678;28;20047;-66
2021/04/08 02:21:27;;;;;;;17.13;5.33;;;;;;;16.66;53.73;100356.78;4993430;28;20136;-67
2021/04/08 02:23:55;;;;;;;10.90;5.43;;;;;;;16.68;53.78;100371.38;4972516;28;20178;-67
2021/04/08 02:26:21;;;;;;;12.87;6.10;;;;;;;16.15;53.58;100295.41;4992228;28;20132;-67
2021/04/08 02:28:50;;;;;;;10.50;5.73;;;;;;;16.50;54.03;100366.84;4991303;28;20471;-68
2021/04/08 02:31:18;;;;;;;8.27;5.70;;;;;;;16.48;54.14;100367.19;4990364;28;20054;-68
2021/04/08 02:33:44;;;;;;;14.43;6.13;;;;;;;16.34;54.18;100364.47;4989620;28;20046;-68
2021/04/08 02:36:13;;;;;;;15.83;5.40;;;;;;;16.35;54.34;100368.94;4983066;28;20051;-66
2021/04/08 02:38:40;;;;;;;12.10;6.50;;;;;;;16.45;54.39;100372.63;4991328;28;20042;-66
2021/04/08 02:41:09;;;;;;;13.97;6.47;;;;;;;16.40;54.62;100376.41;4992001;28;20410;-66
2021/04/08 02:43:36;;;;;;;7.80;4.63;;;;;;;16.31;54.33;100361.47;4990179;28;20605;-67
2021/04/08 02:46:04;;;;;;;18.37;6.43;;;;;;;16.40;54.42;100361.47;4987545;28;20471;-67
2021/04/08 02:48:32;;;;;;;18.33;6.10;;;;;;;16.45;54.15;100367.81;4987025;28;20047;-67
2021/04/08 02:51:04;;;;;;;14.63;5.73;;;;;;;16.50;54.29;100361.19;4990344;28;20059;-68
2021/04/08 02:53:49;;;;;;;12.03;6.00;;;;;;;16.48;54.44;100374.81;4984925;28;20487;-67
2021/04/08 02:56:42;;;;;;;20.37;6.83;;;;;;;16.35;54.69;100368.09;4980081;28;20073;-67
2021/04/08 02:59:23;;;;;;;9.60;6.03;;;;;;;16.28;54.76;100368.56;4991217;28;20042;-67
2021/04/08 03:01:55;;;;;;;11.83;6.67;;;;;;;16.24;54.94;100356.28;4986924;28;20054;-63
2021/04/08 03:04:23;;;;;;;10.57;6.53;;;;;;;16.31;55.06;100367.91;4991796;28;20060;-63
2021/04/08 03:06:51;;;;;;;9.23;5.30;;;;;;;16.30;55.23;100369.06;4986728;28;20039;-63
2021/04/08 03:09:34;;;;;;;13.70;5.80;;;;;;;16.31;54.86;100382.00;4990849;28;20489;-64
2021/04/08 03:12:04;;;;;;;12.90;6.13;;;;;;;16.29;55.04;100375.84;4985344;28;20086;-64
2021/04/08 03:14:39;;;;;;;14.50;6.23;;;;;;;16.20;55.30;100363.69;4984404;28;20129;-64
2021/04/08 03:17:06;;;;;;;13.53;6.10;;;;;;;16.28;55.17;100368.56;4992064;28;20134;-63
2021/04/08 03:19:36;;;;;;;10.93;5.63;;;;;;;16.31;55.26;100372.72;4988142;28;20046;-64
2021/04/08 03:22:03;;;;;;;10.95;6.03;;;;;;;16.32;55.35;100371.56;4990712;28;20039;-65
2021/04/08 03:24:32;;;;;;;10.77;6.47;;;;;;;16.28;55.44;100379.84;4989405;28;20042;-65
2021/04/08 03:27:01;;;;;;;10.93;5.40;;;;;;;16.23;55.79;100365.88;4991095;28;20042;-66
2021/04/08 03:29:29;;;;;;;11.33;5.80;;;;;;;15.93;55.40;100307.53;4981886;28;20048;-65
2021/04/08 03:31:55;;;;;;;13.83;7.17;;;;;;;16.33;55.38;100361.94;4988079;28;20479;-66
2021/04/08 03:34:23;;;;;;;14.10;6.90;;;;;;;16.35;55.38;100368.94;4987482;28;20049;-67
2021/04/08 03:36:50;;;;;;;14.23;6.57;;;;;;;16.38;55.66;100375.91;4989064;28;20042;-67
2021/04/08 03:39:17;;;;;;;16.37;6.90;;;;;;;16.02;55.67;100323.34;4989951;28;20046;-68
2021/04/08 03:41:44;;;;;;;17.30;6.47;;;;;;;16.26;55.71;100359.59;4986392;28;20046;-67
2021/04/08 03:44:15;;;;;;;16.20;6.70;;;;;;;16.27;55.62;100358.47;4990855;28;20439;-73
2021/04/08 03:46:45;;;;;;;15.73;6.83;;;;;;;16.29;55.68;100370.22;4990333;28;20053;-70
2021/04/08 03:49:15;;;;;;;10.30;5.37;;;;;;;16.27;55.74;100375.38;4992095;28;20050;-70
2021/04/08 03:51:42;;;;;;;18.08;6.22;;;;;;;16.21;56.24;100378.63;4988792;28;20065;-71
2021/04/08 03:54:12;;;;;;;11.80;6.70;;;;;;;16.16;56.29;100370.31;4989782;28;20046;-69
2021/04/08 03:56:47;;;;;;;11.55;5.95;;;;;;;16.12;56.41;100370.13;4991230;28;20491;-71
2021/04/08 03:59:15;;;;;;;17.60;7.77;;;;;;;16.06;56.61;100371.41;4990485;28;20061;-72
2021/04/08 04:01:44;;;;;;;14.17;7.20;;;;;;;16.04;56.80;100368.94;4990200;28;20047;-72
2021/04/08 04:04:12;;;;;;;19.03;7.40;;;;;;;15.96;56.75;100349.97;4988385;28;20051;-67
2021/04/08 04:06:42;;;;;;;10.73;6.70;;;;;;;16.04;56.76;100363.28;4986300;28;20038;-67
2021/04/08 04:09:11;;;;;;;12.80;5.95;;;;;;;16.00;56.45;100355.78;4989062;28;20038;-67
2021/04/08 04:11:45;;;;;;;15.00;8.40;;;;;;;16.06;56.47;100369.41;4985319;28;20042;-67
2021/04/08 04:14:15;;;;;;;14.53;7.53;;;;;;;16.04;56.66;100377.38;4987343;28;20407;-67
2021/04/08 04:16:45;;;;;;;12.43;6.77;;;;;;;16.08;56.58;100372.75;4990722;28;20061;-68
2021/04/08 04:19:12;;;;;;;11.50;7.73;;;;;;;16.04;56.60;100371.75;4983624;28;20102;-68
2021/04/08 04:21:39;;;;;;;15.70;7.43;;;;;;;16.11;56.58;100374.94;4982464;28;20418;-66
2021/04/08 04:24:06;;;;;;;22.87;8.07;;;;;;;16.05;56.56;100366.94;4985564;28;20056;-68
2021/04/08 04:26:33;;;;;;;18.03;7.70;;;;;;;16.07;56.68;100378.72;4988210;28;20046;-67
2021/04/08 04:28:59;;;;;;;17.57;8.37;;;;;;;16.01;56.71;100380.00;4986861;28;20056;-68
2021/04/08 04:31:26;;;;;;;16.70;7.30;;;;;;;15.99;56.85;100371.03;4981607;28;20047;-69
2021/04/08 04:33:53;;;;;;;14.93;6.47;;;;;;;15.99;56.63;100380.31;4988529;28;20165;-68
2021/04/08 04:36:20;;;;;;;19.07;8.70;;;;;;;15.92;56.75;100363.03;4989872;28;20043;-70
2021/04/08 04:38:47;;;;;;;14.30;8.23;;;;;;;15.98;57.02;100369.38;4983979;28;20045;-69
2021/04/08 04:41:13;;;;;;;15.87;6.93;;;;;;;15.94;56.83;100374.81;4988789;28;20070;-69
2021/04/08 04:43:40;;;;;;;13.87;7.43;;;;;;;15.93;56.87;100375.13;4985602;28;20054;-70
2021/04/08 04:46:09;;;;;;;12.83;6.33;;;;;;;15.90;57.17;100362.53;4989865;28;20046;-70
2021/04/08 04:48:36;;;;;;;15.37;7.50;;;;;;;15.85;57.30;100371.94;4988921;28;20594;-67
2021/04/08 04:51:04;;;;;;;15.30;6.47;;;;;;;15.84;57.47;100364.66;4983173;28;20046;-69
2021/04/08 04:53:31;;;;;;;22.63;8.10;;;;;;;15.84;57.53;100370.28;4983250;28;20046;-72
2021/04/08 04:55:57;;;;;;;15.43;7.97;;;;;;;15.46;57.91;100312.69;4989326;28;20060;-68
2021/04/08 04:58:23;;;;;;;13.50;7.57;;;;;;;15.66;57.95;100357.25;4986767;28;20057;-70
2021/04/08 05:00:50;;;;;;;18.10;7.37;;;;;;;15.70;58.50;100377.97;4989520;28;20047;-70
2021/04/08 05:03:16;;;;;;;15.83;7.63;;;;;;;15.69;58.56;100373.50;4988165;28;20057;-68
2021/04/08 05:05:42;;;;;;;17.13;7.17;;;;;;;15.65;58.39;100369.59;4984301;28;20046;-68
2021/04/08 05:08:09;;;;;;;13.80;7.60;;;;;;;15.74;58.26;100381.78;4987751;28;20198;-68
2021/04/08 05:10:35;;;;;;;13.83;6.90;;;;;;;15.79;58.06;100373.22;4986528;28;20062;-69
2021/04/08 05:13:01;;;;;;;16.40;6.93;;;;;;;15.79;58.04;100373.22;4987935;28;20412;-69
2021/04/08 05:15:28;;;;;;;18.27;7.47;;;;;;;15.86;57.93;100390.50;4987836;28;20043;-68
2021/04/08 05:18:12;;;;;;;18.63;7.70;;;;;;;15.78;57.63;100382.00;4978520;28;20490;-68
2021/04/08 05:20:38;;;;;;;15.53;8.20;;;;;;;15.90;57.83;100401.97;4982162;28;20164;-69
2021/04/08 05:23:05;;;;;;;15.93;7.03;;;;;;;15.72;58.23;100384.09;4987282;28;20089;-72
2021/04/08 05:25:31;;;;;;;13.30;7.17;;;;;;;15.76;58.12;100401.16;4983256;28;20121;-70
2021/04/08 05:27:58;;;;;;;11.90;7.00;;;;;;;15.75;58.34;100405.16;4988714;28;20046;-72
2021/04/08 05:30:25;;;;;;;18.43;7.10;;;;;;;15.77;58.35;100414.94;4986675;28;20133;-72
2021/04/08 05:32:51;;;;;;;12.30;7.23;;;;;;;15.80;58.59;100424.75;4985161;28;20043;-74
2021/04/08 05:35:18;;;;;;;11.80;8.00;;;;;;;15.84;58.49;100420.97;4986969;28;20550;-70
2021/04/08 05:37:45;;;;;;;19.33;7.90;;;;;;;15.75;58.83;100422.88;4989077;28;20049;-68
2021/04/08 05:40:17;;;;;;;15.23;7.70;;;;;;;15.53;58.61;100374.97;4984268;28;20057;-71
2021/04/08 05:42:44;;;;;;;15.40;8.47;;;;;;;15.78;58.96;100438.28;4986520;28;20046;-72
2021/04/08 05:45:12;;;;;;;12.90;6.73;;;;;;;15.68;59.17;100436.56;4987715;28;20472;-69
2021/04/08 05:47:38;;;;;;;18.47;7.97;;;;;;;15.74;59.33;100457.81;4987849;28;20077;-69
2021/04/08 05:50:06;;;;;;;15.13;7.30;;;;;;;15.59;59.08;100427.19;4986766;28;20049;-77
2021/04/08 05:52:33;;;;;;;17.67;7.30;;;;;;;15.69;59.13;100445.81;4988932;28;20049;-74
2021/04/08 05:55:00;;;;;;;20.80;8.13;;;;;;;15.70;59.19;100451.16;4985699;28;20058;-77
2021/04/08 05:57:26;;;;;;;16.20;8.30;;;;;;;15.79;59.05;100463.31;4988566;28;20046;-73
2021/04/08 05:59:53;;;;;;;14.53;7.13;;;;;;;15.53;58.91;100420.84;4985992;28;20046;-68
2021/04/08 06:02:19;;;;;;;24.43;9.20;;;;;;;15.53;59.08;100408.75;4985109;28;20042;-76
2021/04/08 06:04:45;;;;;;;16.97;7.10;;;;;;;15.99;58.98;100501.41;4987178;28;20491;-70
2021/04/08 06:07:12;;;;;;;20.43;9.17;;;;;;;16.10;59.07;100493.56;4986548;28;20049;-75
2021/04/08 06:09:38;;;;;;;22.60;9.63;;;;;;;16.16;59.10;100509.19;4984987;28;20484;-72
2021/04/08 06:12:08;;;;;;;18.90;8.17;;;;;;;16.04;59.16;100483.59;4984921;28;20046;-73
2021/04/08 06:14:36;;;;;;;22.55;8.90;;;;;;;16.13;59.36;100495.72;4986512;28;20136;-70
2021/04/08 06:17:04;;;;;;;25.73;10.37;;;;;;;16.21;59.37;100508.25;4966282;28;20056;-74
2021/04/08 06:19:31;;;;;;;19.80;8.63;;;;;;;16.24;59.53;100514.06;4980117;28;20471;-72
2021/04/08 06:21:59;;;;;;;19.37;8.23;;;;;;;16.24;59.62;100508.44;4986240;28;20154;-72
2021/04/08 06:24:25;;;;;;;26.97;10.30;;;;;;;16.22;59.83;100521.16;4986732;28;20121;-76
2021/04/08 06:26:54;;;;;;;16.40;9.30;;;;;;;16.20;60.06;100518.66;4982704;28;20126;-75
2021/04/08 06:29:20;;;;;;;20.03;8.87;;;;;;;16.24;59.94;100530.13;4987422;28;20055;-76
2021/04/08 06:31:51;;;;;;;22.73;8.77;;;;;;;16.14;60.19;100503.06;4980795;28;20059;-76
2021/04/08 06:34:17;;;;;;;20.35;7.45;;;;;;;16.27;59.84;100513.44;4987655;28;20050;-77
2021/04/08 06:36:44;;;;;;;19.83;8.40;;;;;;;16.15;59.93;100499.06;4984110;28;20042;-77
2021/04/08 06:39:10;;;;;;;20.40;8.23;;;;;;;16.20;60.25;100524.28;4984225;28;20058;-76
2021/04/08 06:41:38;;;;;;;21.57;9.27;;;;;;;16.13;60.58;100518.28;4986297;28;20050;-77
2021/04/08 06:44:09;;;;;;;23.93;9.07;;;;;;;16.14;60.55;100525.59;4986216;28;20042;-77
2021/04/08 06:46:40;;;;;;;20.23;7.90;;;;;;;16.17;60.44;100513.69;4987505;28;20047;-77
2021/04/08 06:49:15;;;;;;;20.97;8.97;;;;;;;16.18;60.87;100520.16;4987077;28;20044;-74
2021/04/08 06:51:45;;;;;;;24.87;8.47;;;;;;;16.11;61.04;100518.59;4989548;28;20625;-75
2021/04/08 06:54:11;;;;;;;22.88;9.23;;;;;;;16.00;61.14;100510.69;4988224;28;20042;-75
2021/04/08 06:56:40;;;;;;;22.07;8.67;;;;;;;15.95;61.35;100516.47;4989957;28;20137;-75
2021/04/08 06:59:11;;;;;;;16.80;8.07;;;;;;;15.88;61.56;100500.84;4991767;28;20186;-76
2021/04/08 07:01:38;;;;;;;25.10;8.70;;;;;;;16.03;61.64;100525.00;4988820;28;20529;-76
2021/04/08 07:04:05;;;;;;;11.40;6.33;;;;;;;15.97;61.38;100523.47;4990006;28;20046;-75
2021/04/08 07:06:34;;;;;;;18.43;8.83;;;;;;;15.81;62.17;100522.97;4990226;28;20050;-76
2021/04/08 07:09:01;;;;;;;23.27;8.07;;;;;;;15.80;62.39;100524.13;4991748;28;20492;-76
2021/04/08 07:11:28;;;;;;;13.93;6.90;;;;;;;15.68;62.62;100509.75;4990435;28;20172;-77
2021/04/08 07:13:54;;;;;;;30.70;8.13;;;;;;;15.79;62.86;100542.16;4991527;28;20050;-74
2021/04/08 07:16:21;;;;;;;22.33;8.83;;;;;;;15.75;62.85;100535.47;4989020;28;20050;-72
2021/04/08 07:18:49;;;;;;;21.80;9.17;;;;;;;16.00;62.73;100547.31;4991553;28;20042;-74
2021/04/08 07:21:16;;;;;;;16.37;8.50;;;;;;;16.18;62.51;100548.31;4992102;28;20492;-74
2021/04/08 07:24:07;;;;;;;14.50;8.07;;;;;;;16.51;61.75;100546.06;4985252;28;20042;-74
2021/04/08 07:26:52;;;;;;;26.87;9.60;;;;;;;16.80;61.14;100566.22;4985669;28;20042;-74
2021/04/08 07:29:20;;;;;;;23.47;9.80;;;;;;;16.76;61.42;100565.22;4992224;28;20050;-73
2021/04/08 07:31:47;;;;;;;18.30;8.90;;;;;;;16.88;60.79;100561.78;4991011;28;20050;-73
2021/04/08 07:34:33;;;;;;;13.80;7.43;;;;;;;17.03;60.73;100566.19;4994710;28;20053;-73
2021/04/08 07:37:00;;;;;;;20.37;8.43;;;;;;;17.33;60.52;100569.31;4985307;28;20100;-75
2021/04/08 07:39:38;;;;;;;21.47;8.37;;;;;;;17.57;59.75;100558.44;4982550;28;20046;-73
2021/04/08 07:42:11;;;;;;;16.73;7.90;;;;;;;17.69;59.31;100513.47;4993469;28;20069;-74
2021/04/08 07:44:51;;;;;;;19.03;8.13;;;;;;;18.36;58.48;100557.44;4988704;28;20120;-72
2021/04/08 07:47:30;;;;;;;14.57;7.47;;;;;;;18.61;57.66;100578.38;4982829;28;20143;-75
2021/04/08 07:50:05;;;;;;;17.23;8.13;;;;;;;18.78;57.61;100582.38;4991419;28;20133;-72
2021/04/08 07:52:49;;;;;;;23.98;8.30;;;;;;;18.86;56.83;100573.84;4987965;28;20052;-74
2021/04/08 07:55:30;;;;;;;12.55;6.35;;;;;;;19.20;56.38;100582.59;4990706;28;20058;-74
2021/04/08 07:58:10;;;;;;;14.07;7.47;;;;;;;19.49;55.73;100585.50;4988920;28;20194;-73
2021/04/08 08:00:40;;;;;;;16.70;8.40;;;;;;;19.63;55.53;100571.97;4985855;28;20050;-76
2021/04/08 08:03:10;;;;;;;;;;;;;;;19.80;55.79;100578.72;4988232;28;20092;-74
2021/04/08 08:05:42;;;;;;;19.10;7.78;;;;;;;20.04;55.10;100573.22;4989586;28;19926;-75
2021/04/08 08:08:22;;;;;;;21.35;7.03;;;;;;;20.27;54.22;100581.38;4985562;28;20047;-76
2021/04/08 08:10:58;;;;;;;18.60;5.97;;;;;;;19.95;53.85;100589.44;4990256;28;20141;-76
2021/04/08 08:13:52;;;;;;;11.95;7.10;;;;;;;19.76;53.84;100594.69;4990218;28;20043;-77
2021/04/08 08:16:23;;;;;;;10.35;5.88;;;;;;;20.00;53.84;100580.75;4988825;28;20129;-76
2021/04/08 08:18:50;;;;;;;22.40;6.95;;;;;;;20.15;53.15;100578.47;4989937;28;20069;-74
2021/04/08 08:21:35;;;;;;;16.27;6.18;;;;;;;20.35;52.75;100580.50;4988421;28;20431;-74
2021/04/08 08:24:21;;;;;;;16.27;5.28;;;;;;;20.63;52.41;100582.78;4989244;28;20174;-73
2021/04/08 08:26:49;;;;;;;15.35;5.63;;;;;;;20.85;51.67;100579.53;4987721;28;20150;-74
2021/04/08 08:29:28;;;;;;;12.25;4.93;;;;;;;21.01;51.46;100591.91;4990210;28;20057;-76
2021/04/08 08:32:03;;;;;;;16.60;6.15;;;;;;;21.24;50.59;100594.34;4986673;28;23085;-74
2021/04/08 08:34:40;;;;;;;10.50;4.82;;;;;;;21.09;50.63;100595.00;4990551;28;20414;-76
2021/04/08 08:37:09;;;;;;;15.70;5.05;;;;;;;20.57;50.68;100591.50;4984858;28;20137;-72
2021/04/08 08:39:37;;;;;;;11.02;5.72;;;;;;;20.54;50.59;100603.53;4986868;28;20046;-73
2021/04/08 08:42:05;;;;;;;14.63;5.40;;;;;;;20.47;50.94;100583.38;4986645;28;20061;-75
2021/04/08 08:44:34;;;;;;;18.23;6.07;;;;;;;20.44;50.73;100586.91;4986438;28;20054;-76
2021/04/08 08:47:14;;;;;;;15.45;6.50;;;;;;;20.79;50.46;100592.31;4986489;28;20483;-76
2021/04/08 08:49:42;;;;;;;13.52;6.20;;;;;;;21.13;49.63;100613.00;4983520;28;20086;-74
2021/04/08 08:52:12;;;;;;;16.30;7.10;;;;;;;21.06;49.06;100586.03;4980427;28;20503;-75
2021/04/08 08:54:39;;;;;;;14.30;6.07;;;;;;;21.20;48.70;100608.41;4988457;28;20049;-76
2021/04/08 08:57:06;;;;;;;94.10;10.98;;;;;;;21.38;48.51;100599.72;4988521;28;20077;-75
2021/04/08 08:59:33;;;;;;;18.35;5.40;;;;;;;21.22;48.19;100599.53;4987171;28;20125;-76
2021/04/08 09:02:00;;;;;;;14.82;4.43;;;;;;;21.44;47.80;100604.81;4987450;28;20042;-75
2021/04/08 09:04:28;;;;;;;9.27;4.13;;;;;;;21.57;47.22;100602.81;4982897;28;20128;-72
2021/04/08 09:07:00;;;;;;;14.15;5.18;;;;;;;21.46;46.78;100607.31;4985963;28;20050;-73
2021/04/08 09:09:29;;;;;;;15.65;5.53;;;;;;;21.97;46.69;100607.78;4980674;28;20153;-75
2021/04/08 09:11:58;;;;;;;12.20;5.80;;;;;;;22.38;46.11;100606.69;4988112;28;20042;-74
2021/04/08 09:14:27;;;;;;;16.27;6.22;;;;;;;22.59;45.30;100605.69;4987090;28;20126;-76
2021/04/08 09:16:54;;;;;;;10.45;4.70;;;;;;;22.55;45.37;100631.19;4989588;28;20050;-75
2021/04/08 09:19:28;;;;;;;;;;;;;;;22.38;46.16;100622.94;4986173;28;20054;-75
2021/04/08 09:22:09;;;;;;;11.63;4.93;;;;;;;22.16;45.98;100610.06;4985660;28;19989;-75
2021/04/08 09:24:47;;;;;;;9.25;4.43;;;;;;;21.85;45.86;100614.31;4987045;28;20056;-74
2021/04/08 09:27:20;;;;;;;11.65;5.53;;;;;;;21.83;45.88;100624.38;4987878;28;20053;-76
2021/04/08 09:29:52;;;;;;;15.30;4.25;;;;;;;22.13;45.60;100622.13;4987559;28;20124;-74
2021/04/08 09:32:57;;;;;;;11.77;5.35;;;;;;;22.33;45.77;100609.78;4987797;28;20061;-76
2021/04/08 09:35:30;;;;;;;16.35;4.45;;;;;;;22.32;45.62;100616.66;4925201;29;20058;-75
2021/04/08 09:37:59;;;;;;;10.98;4.45;;;;;;;21.98;45.95;100621.66;4929169;29;20150;-75
2021/04/08 09:40:34;;;;;;;14.27;5.07;;;;;;;21.97;45.63;100624.84;4959241;28;20089;-75
2021/04/08 09:43:02;;;;;;;11.43;4.65;;;;;;;21.77;46.06;100623.78;4984063;28;20488;-76
2021/04/08 09:45:30;;;;;;;13.02;5.03;;;;;;;21.82;46.00;100615.03;4986643;28;20061;-72
2021/04/08 09:48:19;;;;;;;12.00;4.70;;;;;;;22.41;45.51;100620.19;4990126;28;20051;-76
2021/04/08 09:50:59;;;;;;;11.77;4.10;;;;;;;22.68;44.94;100629.16;4986731;28;20414;-76
2021/04/08 09:53:37;;;;;;;11.85;5.53;;;;;;;23.01;44.31;100630.94;4985667;28;20042;-75
2021/04/08 09:56:07;;;;;;;10.85;4.75;;;;;;;23.29;43.91;100631.75;4985461;28;20141;-74
2021/04/08 09:58:34;;;;;;;;;;;;;;;23.32;44.35;100633.03;4984508;28;20048;-75
2021/04/08 10:01:09;;;;;;;13.35;5.20;;;;;;;23.64;43.21;100639.59;4990215;28;20017;-74
2021/04/08 10:03:43;;;;;;;16.38;5.20;;;;;;;23.89;42.69;100629.66;4987430;28;20065;-74
2021/04/08 10:06:21;;;;;;;11.00;5.07;;;;;;;24.39;41.70;100634.94;4989057;28;20470;-74
2021/04/08 10:08:47;;;;;;;11.90;4.80;;;;;;;24.75;40.93;100614.59;4988911;28;20077;-75
2021/04/08 10:11:25;;;;;;;18.52;5.18;;;;;;;24.93;40.57;100628.41;4989794;28;20140;-74
2021/04/08 10:13:51;;;;;;;11.80;4.50;;;;;;;24.80;40.27;100591.41;4986653;28;20052;-75
2021/04/08 10:16:18;;;;;;;10.85;4.72;;;;;;;25.24;39.67;100631.09;4987643;28;20074;-75
2021/04/08 10:18:45;;;;;;;13.63;4.40;;;;;;;25.62;39.62;100643.66;4987509;28;20152;-74
2021/04/08 10:21:14;;;;;;;9.73;4.90;;;;;;;25.94;38.87;100627.06;4985603;28;20134;-74
2021/04/08 10:23:43;;;;;;;8.07;4.65;;;;;;;26.23;38.20;100641.84;4988401;28;20073;-73
2021/04/08 10:26:13;;;;;;;11.27;4.37;;;;;;;26.40;37.82;100640.47;4989996;28;20129;-75
2021/04/08 10:28:48;;;;;;;16.52;5.28;;;;;;;26.61;37.29;100640.81;4988066;28;20883;-74
2021/04/08 10:31:31;;;;;;;10.60;5.53;;;;;;;27.01;36.79;100647.88;4987899;28;20050;-77
2021/04/08 10:34:07;;;;;;;8.25;4.50;;;;;;;27.01;36.94;100645.00;4989635;28;20394;-74
2021/04/08 10:36:46;;;;;;;10.90;5.35;;;;;;;26.89;36.86;100637.47;4992376;28;20046;-71
2021/04/08 10:39:21;;;;;;;12.77;4.80;;;;;;;26.37;37.42;100641.25;4990862;28;20121;-75
2021/04/08 10:41:57;;;;;;;16.33;5.57;;;;;;;26.63;36.58;100637.53;4991017;28;20173;-73
2021/04/08 10:44:26;;;;;;;7.40;3.85;;;;;;;27.00;36.01;100646.22;4989301;28;20061;-74
2021/04/08 10:46:55;;;;;;;9.75;4.30;;;;;;;27.07;35.65;100645.47;4986655;28;20065;-74
2021/04/08 10:49:24;;;;;;;11.20;4.30;;;;;;;27.07;35.72;100652.03;4992389;28;20105;-74
2021/04/08 10:51:52;;;;;;;14.32;5.20;;;;;;;26.79;35.78;100645.94;4991409;28;20054;-75
2021/04/08 10:54:18;;;;;;;13.45;4.57;;;;;;;27.07;35.79;100648.34;4991481;28;20422;-75
2021/04/08 10:56:49;;;;;;;13.77;5.53;;;;;;;27.05;35.21;100637.28;4987640;28;20476;-72
2021/04/08 10:59:21;;;;;;;16.48;5.07;;;;;;;26.84;35.70;100632.09;4989661;28;20505;-74
2021/04/08 11:01:49;;;;;;;12.02;4.88;;;;;;;26.67;35.30;100624.09;4991199;28;20046;-74
2021/04/08 11:04:18;;;;;;;18.08;5.18;;;;;;;27.07;35.52;100629.09;4986508;28;20050;-74
2021/04/08 11:06:45;;;;;;;13.70;5.47;;;;;;;28.03;33.73;100617.78;4986364;28;20043;-73
2021/04/08 11:09:20;;;;;;;8.18;4.35;;;;;;;28.38;32.94;100622.16;4992250;28;20050;-73
2021/04/08 11:11:46;;;;;;;15.75;4.70;;;;;;;28.55;32.96;100638.72;4990342;28;20042;-74
2021/04/08 11:14:27;;;;;;;9.55;4.88;;;;;;;28.45;33.16;100633.72;4991603;28;20073;-74
2021/04/08 11:16:55;;;;;;;9.82;4.30;;;;;;;28.58;32.99;100637.06;4985716;28;20050;-74
2021/04/08 11:19:22;;;;;;;11.57;4.10;;;;;;;28.67;32.85;100625.22;4987649;28;20046;-74
2021/04/08 11:21:49;;;;;;;11.93;3.97;;;;;;;28.71;32.55;100628.94;4988708;28;20054;-73
2021/04/08 11:24:17;;;;;;;17.83;4.68;;;;;;;28.06;33.30;100617.00;4990328;28;20050;-72
2021/04/08 11:26:47;;;;;;;13.50;4.45;;;;;;;28.41;33.04;100618.53;4985663;28;20422;-74
2021/04/08 11:29:21;;;;;;;11.55;4.30;;;;;;;28.77;32.62;100625.25;4987974;28;20080;-72
2021/04/08 11:32:01;;;;;;;16.58;4.20;;;;;;;28.40;32.54;100619.72;4988155;28;20141;-74
2021/04/08 11:34:39;;;;;;;14.27;3.85;;;;;;;27.98;33.03;100623.91;4988579;28;20125;-74